Time;durP1;ratioP1;P1;durP2;ratioP2;P2;SDS_P1;SDS_P2;PMS_P1;PMS_P2;Temp;Humidity;BMP_temperature;BMP_pressure;BME280_temperature;BME280_humidity;BME280_pressure;Samples;Min_cycle;Max_cycle;Signal;HPM_P1;HPM_P2
2021/05/21 00:01:40;;;;;;;1.13;0.75;;;16.30;64.60;;;;;;5074136;28;20029;-61
2021/05/21 00:04:06;;;;;;;2.65;1.20;;;16.30;64.90;;;;;;5073901;28;20029;-60
2021/05/21 00:06:32;;;;;;;0.68;0.68;;;16.20;64.30;;;;;;5073358;28;20185;-61
2021/05/21 00:09:00;;;;;;;1.58;1.27;;;16.30;64.40;;;;;;5073965;28;20068;-61
2021/05/21 00:11:26;;;;;;;4.97;1.23;;;16.20;64.30;;;;;;5074086;28;20392;-61
2021/05/21 00:13:51;;;;;;;1.92;1.15;;;16.10;64.00;;;;;;5073161;28;20032;-62
2021/05/21 00:16:17;;;;;;;0.73;0.45;;;16.10;64.10;;;;;;5073738;28;20033;-61
2021/05/21 00:18:49;;;;;;;1.35;1.10;;;16.10;64.40;;;;;;5072741;28;20036;-62
2021/05/21 00:21:15;;;;;;;3.15;1.35;;;16.10;64.30;;;;;;5073197;28;20024;-61
2021/05/21 00:23:41;;;;;;;1.63;1.08;;;16.10;64.30;;;;;;5073570;28;20044;-61
2021/05/21 00:26:06;;;;;;;4.82;1.30;;;16.10;64.40;;;;;;5073740;28;20029;-61
2021/05/21 00:28:32;;;;;;;2.13;1.05;;;16.10;64.50;;;;;;5072849;28;20035;-61
2021/05/21 00:30:57;;;;;;;3.15;1.60;;;16.10;64.80;;;;;;5073554;28;20028;-61
2021/05/21 00:33:23;;;;;;;1.73;1.27;;;16.10;65.00;;;;;;5073345;28;20436;-61
2021/05/21 00:35:49;;;;;;;3.40;1.42;;;16.10;65.20;;;;;;5073075;28;20029;-61
2021/05/21 00:38:14;;;;;;;2.30;1.13;;;16.10;65.40;;;;;;5073599;28;20033;-61
2021/05/21 00:40:40;;;;;;;2.13;1.20;;;16.20;65.30;;;;;;5073356;28;20016;-61
2021/05/21 00:43:05;;;;;;;4.18;1.10;;;16.10;65.10;;;;;;5072634;28;20032;-61
2021/05/21 00:45:31;;;;;;;3.42;1.25;;;16.10;65.00;;;;;;5073105;28;20024;-61
2021/05/21 00:47:57;;;;;;;1.95;1.20;;;16.10;65.10;;;;;;5072878;28;20042;-61
2021/05/21 00:50:22;;;;;;;1.13;0.77;;;16.10;64.80;;;;;;5072838;28;20113;-61
2021/05/21 00:52:48;;;;;;;1.10;1.00;;;16.10;64.60;;;;;;5073280;28;20037;-61
2021/05/21 00:55:14;;;;;;;7.70;1.13;;;16.00;64.50;;;;;;5072606;28;20040;-61
2021/05/21 00:57:43;;;;;;;1.70;0.93;;;16.00;64.60;;;;;;5073199;28;20073;-61
2021/05/21 01:00:10;;;;;;;0.65;0.65;;;16.00;64.70;;;;;;5073002;28;20100;-61
2021/05/21 01:02:36;;;;;;;1.60;0.95;;;15.90;64.80;;;;;;5072320;28;20032;-61
2021/05/21 01:05:05;;;;;;;1.77;1.00;;;15.90;64.80;;;;;;5072832;28;20136;-61
2021/05/21 01:07:31;;;;;;;2.58;0.90;;;15.80;64.80;;;;;;5072782;28;20068;-61
2021/05/21 01:09:57;;;;;;;1.02;0.90;;;15.80;65.00;;;;;;5072362;28;20071;-61
2021/05/21 01:12:23;;;;;;;1.35;0.52;;;15.80;65.00;;;;;;5072737;28;20025;-61
2021/05/21 01:14:53;;;;;;;3.33;0.80;;;15.70;64.90;;;;;;5073152;28;20060;-61
2021/05/21 01:17:20;;;;;;;2.72;0.90;;;15.70;65.10;;;;;;5072459;28;20032;-61
2021/05/21 01:19:46;;;;;;;1.70;0.98;;;15.70;65.30;;;;;;5071615;28;20063;-62
2021/05/21 01:22:14;;;;;;;2.10;1.02;;;15.60;65.40;;;;;;5072901;28;20028;-61
2021/05/21 01:24:40;;;;;;;3.85;1.17;;;15.60;65.60;;;;;;5071963;28;20095;-61
2021/05/21 01:27:09;;;;;;;1.15;0.80;;;15.60;65.80;;;;;;5072495;28;20029;-61
2021/05/21 01:29:35;;;;;;;2.45;1.20;;;15.60;65.80;;;;;;5072936;28;20028;-61
2021/05/21 01:32:02;;;;;;;1.30;1.02;;;15.60;66.00;;;;;;5072023;28;20102;-61
2021/05/21 01:34:29;;;;;;;2.83;1.15;;;15.60;66.30;;;;;;5072753;28;20115;-61
2021/05/21 01:36:55;;;;;;;3.75;1.13;;;15.60;66.30;;;;;;5072518;28;20032;-61
2021/05/21 01:39:21;;;;;;;3.85;1.17;;;15.60;66.50;;;;;;5071929;28;20032;-61
2021/05/21 01:41:48;;;;;;;0.75;0.60;;;15.60;66.60;;;;;;5072443;28;20051;-61
2021/05/21 01:44:17;;;;;;;3.13;0.98;;;15.60;66.50;;;;;;5071992;28;20037;-61
2021/05/21 01:46:43;;;;;;;0.20;0.20;;;15.60;66.60;;;;;;5072585;28;20028;-61
2021/05/21 01:49:08;;;;;;;0.77;0.70;;;15.60;66.60;;;;;;5072432;28;20025;-61
2021/05/21 01:51:49;;;;;;;4.38;1.40;;;15.50;67.00;;;;;;5071923;28;20036;-61
2021/05/21 01:54:16;;;;;;;1.27;1.00;;;15.50;67.80;;;;;;5072305;28;20058;-61
2021/05/21 01:56:43;;;;;;;3.20;0.82;;;15.40;68.80;;;;;;5072680;28;20434;-61
2021/05/21 01:59:09;;;;;;;2.42;0.85;;;15.30;69.80;;;;;;5069994;28;20490;-61
2021/05/21 02:01:35;;;;;;;1.52;1.00;;;15.20;70.40;;;;;;5067172;28;20021;-61
2021/05/21 02:04:02;;;;;;;3.45;1.20;;;15.10;70.70;;;;;;5072378;28;20477;-61
2021/05/21 02:06:28;;;;;;;3.20;1.00;;;15.10;71.00;;;;;;5055645;28;20435;-62
2021/05/21 02:08:54;;;;;;;3.20;0.90;;;15.10;71.20;;;;;;5062135;28;20131;-61
2021/05/21 02:11:20;;;;;;;1.10;0.65;;;15.00;71.40;;;;;;5064564;28;20102;-61
2021/05/21 02:13:46;;;;;;;3.28;0.90;;;15.00;71.70;;;;;;5073753;28;20115;-61
2021/05/21 02:16:12;;;;;;;3.47;1.23;;;15.00;72.00;;;;;;5076298;28;20082;-61
2021/05/21 02:18:38;;;;;;;1.38;0.73;;;14.90;72.20;;;;;;5074099;28;20025;-61
2021/05/21 02:21:07;;;;;;;1.92;0.85;;;14.80;72.40;;;;;;5055430;28;20111;-61
2021/05/21 02:23:33;;;;;;;2.05;1.00;;;14.80;72.70;;;;;;5056087;28;20080;-61
2021/05/21 02:25:58;;;;;;;0.55;0.40;;;14.80;72.70;;;;;;5075922;28;20060;-61
2021/05/21 02:28:24;;;;;;;12.55;1.58;;;14.70;72.70;;;;;;5075514;28;20036;-61
2021/05/21 02:30:50;;;;;;;0.68;0.65;;;14.70;72.70;;;;;;5075884;28;20029;-61
2021/05/21 02:33:15;;;;;;;0.73;0.73;;;14.80;72.70;;;;;;5075948;28;20027;-61
2021/05/21 02:35:41;;;;;;;2.67;0.90;;;14.80;72.70;;;;;;5073095;28;20028;-61
2021/05/21 02:38:06;;;;;;;3.70;1.35;;;14.70;72.80;;;;;;5054517;28;20484;-61
2021/05/21 02:40:32;;;;;;;3.45;1.30;;;14.70;73.00;;;;;;5069009;28;20021;-61
2021/05/21 02:42:58;;;;;;;0.80;0.52;;;14.60;73.20;;;;;;5075602;28;20031;-61
2021/05/21 02:45:24;;;;;;;5.00;1.88;;;14.60;73.40;;;;;;5074433;28;20625;-61
2021/05/21 02:47:50;;;;;;;4.38;0.95;;;14.50;73.50;;;;;;5074800;28;20115;-61
2021/05/21 02:50:15;;;;;;;6.93;1.38;;;14.50;73.60;;;;;;5075648;28;20055;-61
2021/05/21 02:52:41;;;;;;;5.38;0.95;;;14.50;73.60;;;;;;5074147;28;20119;-61
2021/05/21 02:55:08;;;;;;;6.72;1.85;;;14.50;73.70;;;;;;5074785;28;20021;-61
2021/05/21 02:57:33;;;;;;;4.57;1.35;;;14.40;73.80;;;;;;5075092;28;20574;-61
2021/05/21 02:59:59;;;;;;;9.00;2.25;;;14.30;74.10;;;;;;5075138;28;20032;-67
2021/05/21 03:02:25;;;;;;;8.38;1.90;;;14.20;74.40;;;;;;5067842;28;20029;-61
2021/05/21 03:04:54;;;;;;;5.43;1.08;;;14.10;74.60;;;;;;5072070;28;20048;-61
2021/05/21 03:07:20;;;;;;;0.85;0.82;;;14.10;74.70;;;;;;5073946;28;20025;-62
2021/05/21 03:09:46;;;;;;;6.75;1.55;;;14.10;74.60;;;;;;5072825;28;20127;-62
2021/05/21 03:12:12;;;;;;;2.13;1.10;;;14.10;74.50;;;;;;5073007;28;20115;-62
2021/05/21 03:14:38;;;;;;;5.60;1.50;;;14.10;74.40;;;;;;5073587;28;20029;-62
2021/05/21 03:17:07;;;;;;;3.90;1.25;;;14.10;74.30;;;;;;5072951;28;20020;-62
2021/05/21 03:19:32;;;;;;;5.13;1.42;;;14.10;74.10;;;;;;5073604;28;20028;-62
2021/05/21 03:21:58;;;;;;;2.17;1.48;;;14.00;74.00;;;;;;5073708;28;20480;-62
2021/05/21 03:24:24;;;;;;;3.47;1.25;;;14.00;74.00;;;;;;5072802;28;20044;-62
2021/05/21 03:26:51;;;;;;;0.57;0.47;;;13.90;74.00;;;;;;5073267;28;20078;-62
2021/05/21 03:29:17;;;;;;;6.00;1.48;;;13.90;74.10;;;;;;5073472;28;20028;-62
2021/05/21 03:31:43;;;;;;;6.13;1.80;;;13.90;74.10;;;;;;5072576;28;20491;-63
2021/05/21 03:34:09;;;;;;;5.25;1.50;;;13.90;73.90;;;;;;5073151;28;20399;-62
2021/05/21 03:36:35;;;;;;;5.32;1.25;;;13.90;73.70;;;;;;5072339;28;20021;-62
2021/05/21 03:39:03;;;;;;;2.22;1.27;;;13.90;73.50;;;;;;5062642;28;20075;-62
2021/05/21 03:41:29;;;;;;;4.18;0.90;;;13.90;73.40;;;;;;5073102;28;20021;-62
2021/05/21 03:43:55;;;;;;;4.03;1.02;;;13.90;73.40;;;;;;5072333;28;20037;-62
2021/05/21 03:46:21;;;;;;;4.18;1.33;;;13.80;73.10;;;;;;5073405;28;20028;-62
2021/05/21 03:48:47;;;;;;;9.48;1.90;;;13.80;72.90;;;;;;5072656;28;20395;-62
2021/05/21 03:51:13;;;;;;;14.10;2.03;;;13.80;72.90;;;;;;5072388;28;20016;-62
2021/05/21 03:53:39;;;;;;;0.98;0.50;;;13.80;72.80;;;;;;5073209;28;20020;-62
2021/05/21 03:56:05;;;;;;;7.18;1.38;;;13.70;72.90;;;;;;5072768;28;20028;-62
2021/05/21 03:58:33;;;;;;;5.95;1.35;;;13.70;72.80;;;;;;5072335;28;20031;-62
2021/05/21 04:00:59;;;;;;;4.15;0.82;;;13.70;72.80;;;;;;5072797;28;20137;-62
2021/05/21 04:03:26;;;;;;;3.72;0.90;;;13.70;72.80;;;;;;5072504;28;20455;-62
2021/05/21 04:05:51;;;;;;;5.47;1.02;;;13.70;72.90;;;;;;5052621;28;564891;-62
2021/05/21 04:08:17;;;;;;;1.17;0.47;;;13.70;72.80;;;;;;5066405;28;20029;-62
2021/05/21 04:10:43;;;;;;;14.43;1.95;;;13.70;72.80;;;;;;5064983;28;20037;-62
2021/05/21 04:13:08;;;;;;;4.88;1.02;;;13.70;72.80;;;;;;5068383;28;20028;-62
2021/05/21 04:15:34;;;;;;;2.08;0.80;;;13.70;72.70;;;;;;5073987;28;20047;-62
2021/05/21 04:18:01;;;;;;;5.75;1.30;;;13.70;72.60;;;;;;5073938;28;20032;-63
2021/05/21 04:20:27;;;;;;;10.02;1.25;;;13.70;72.60;;;;;;5071753;28;20056;-62
2021/05/21 04:22:52;;;;;;;6.47;1.67;;;13.70;72.40;;;;;;5073781;28;20125;-62
2021/05/21 04:25:18;;;;;;;14.55;2.22;;;13.70;72.30;;;;;;5072986;28;20028;-62
2021/05/21 04:27:44;;;;;;;8.95;1.50;;;13.70;72.40;;;;;;5073109;28;20046;-62
2021/05/21 04:30:10;;;;;;;3.92;1.27;;;13.70;72.30;;;;;;5073542;28;20038;-62
2021/05/21 04:32:35;;;;;;;7.65;1.75;;;13.80;72.20;;;;;;5073616;28;20016;-62
2021/05/21 04:35:01;;;;;;;9.98;1.90;;;13.70;72.10;;;;;;5073153;28;20630;-62
2021/05/21 04:37:27;;;;;;;21.10;2.67;;;13.80;72.20;;;;;;5073597;28;20414;-62
2021/05/21 04:39:53;;;;;;;10.73;2.00;;;13.80;72.20;;;;;;5073041;28;20020;-62
2021/05/21 04:42:19;;;;;;;5.78;1.08;;;13.80;72.00;;;;;;5072910;28;20021;-62
2021/05/21 04:44:45;;;;;;;3.88;1.00;;;13.80;71.80;;;;;;5072968;28;20052;-62
2021/05/21 04:47:11;;;;;;;6.32;1.40;;;13.80;71.70;;;;;;5072162;28;20031;-62
2021/05/21 04:49:36;;;;;;;20.80;2.42;;;13.80;71.70;;;;;;5073536;28;20020;-62
2021/05/21 04:52:07;;;;;;;13.70;2.30;;;13.80;71.80;;;;;;5073333;28;20479;-62
2021/05/21 04:54:34;;;;;;;14.77;1.55;;;13.80;72.10;;;;;;5072734;28;20032;-62
2021/05/21 04:57:00;;;;;;;8.68;1.80;;;13.80;71.80;;;;;;5071406;28;20032;-62
2021/05/21 04:59:26;;;;;;;8.75;1.70;;;13.70;71.50;;;;;;5066081;28;20116;-62
2021/05/21 05:01:52;;;;;;;3.10;1.25;;;13.80;71.70;;;;;;5064525;28;20496;-62
2021/05/21 05:04:21;;;;;;;12.65;1.90;;;13.70;71.50;;;;;;5057822;28;20380;-67
2021/05/21 05:06:48;;;;;;;3.10;0.80;;;13.70;71.70;;;;;;5066820;28;20071;-66
2021/05/21 05:09:15;;;;;;;18.02;2.70;;;13.70;71.50;;;;;;5065455;28;20032;-63
2021/05/21 05:11:42;;;;;;;8.55;2.05;;;13.70;71.80;;;;;;5058732;28;20058;-62
2021/05/21 05:14:09;;;;;;;25.75;2.75;;;13.70;71.90;;;;;;5065932;28;20079;-62
2021/05/21 05:16:34;;;;;;;12.38;2.22;;;13.60;71.80;;;;;;5066898;28;20054;-62
2021/05/21 05:19:00;;;;;;;12.85;2.55;;;13.60;71.90;;;;;;5065147;28;20036;-63
2021/05/21 05:21:27;;;;;;;8.70;0.88;;;13.70;72.00;;;;;;5056165;28;20085;-63
2021/05/21 05:23:54;;;;;;;2.35;0.82;;;13.60;71.80;;;;;;5068468;28;20071;-62
2021/05/21 05:26:20;;;;;;;8.05;1.58;;;13.70;71.70;;;;;;5069929;28;20147;-62
2021/05/21 05:28:47;;;;;;;0.65;0.38;;;13.60;72.00;;;;;;5061891;28;20433;-63
2021/05/21 05:31:13;;;;;;;8.02;1.63;;;13.60;71.80;;;;;;5050934;28;20027;-62
2021/05/21 05:33:40;;;;;;;7.88;1.50;;;13.60;72.00;;;;;;5055738;28;20029;-62
2021/05/21 05:36:07;;;;;;;5.15;1.77;;;13.60;72.00;;;;;;5070210;28;20017;-63
2021/05/21 05:38:36;;;;;;;13.73;2.22;;;13.60;72.20;;;;;;5058949;28;20095;-68
2021/05/21 05:41:02;;;;;;;16.30;2.20;;;13.60;72.60;;;;;;5066691;28;20112;-62
2021/05/21 05:43:28;;;;;;;10.95;1.77;;;13.60;72.50;;;;;;5063229;28;20040;-62
2021/05/21 05:45:53;;;;;;;8.18;1.50;;;13.60;72.80;;;;;;5065282;28;20028;-62
2021/05/21 05:48:19;;;;;;;3.90;1.08;;;13.60;72.70;;;;;;5063995;28;20029;-62
2021/05/21 05:50:46;;;;;;;9.90;1.95;;;13.50;72.90;;;;;;5065364;28;20545;-66
2021/05/21 05:53:12;;;;;;;10.00;2.30;;;13.60;73.40;;;;;;5072029;28;20074;-66
2021/05/21 05:55:40;;;;;;;7.95;1.85;;;13.50;73.50;;;;;;5071871;28;20038;-66
2021/05/21 05:58:07;;;;;;;2.05;1.10;;;13.50;73.80;;;;;;5063441;28;20531;-64
2021/05/21 06:00:32;;;;;;;3.10;1.58;;;13.50;74.00;;;;;;5053116;28;20091;-62
2021/05/21 06:03:12;;;;;;;13.68;2.13;;;13.50;74.00;;;;;;5067478;28;20469;-62
2021/05/21 06:05:38;;;;;;;5.38;1.50;;;13.50;74.40;;;;;;5051849;28;20077;-62
2021/05/21 06:08:07;;;;;;;9.68;1.92;;;13.50;74.40;;;;;;5056794;28;20116;-62
2021/05/21 06:10:33;;;;;;;10.60;2.50;;;13.50;74.90;;;;;;5064538;28;20495;-62
2021/05/21 06:13:07;;;;;;;11.02;2.63;;;13.40;74.80;;;;;;5065659;28;20044;-62
2021/05/21 06:15:33;;;;;;;;;;;13.50;75.10;;;;;;5059772;28;20112;-62
2021/05/21 06:17:59;;;;;;;9.23;1.73;;;13.50;75.30;;;;;;5072247;28;19953;-62
2021/05/21 06:20:27;;;;;;;17.33;2.10;;;13.40;75.50;;;;;;5071395;28;20038;-63
2021/05/21 06:22:53;;;;;;;13.93;1.73;;;13.40;76.10;;;;;;5071905;28;20505;-62
2021/05/21 06:25:28;;;;;;;10.70;1.98;;;13.40;76.00;;;;;;5072224;28;20376;-62
2021/05/21 06:27:54;;;;;;;9.45;1.63;;;13.40;76.30;;;;;;5072005;28;20480;-62
2021/05/21 06:30:20;;;;;;;10.02;2.83;;;13.40;76.40;;;;;;5072102;28;20051;-62
2021/05/21 06:32:48;;;;;;;3.33;1.52;;;13.40;76.60;;;;;;5069890;28;20514;-62
2021/05/21 06:35:14;;;;;;;6.30;1.70;;;13.30;76.80;;;;;;5071714;28;20028;-62
2021/05/21 06:37:40;;;;;;;8.98;2.88;;;13.30;76.80;;;;;;5071553;28;20028;-62
2021/05/21 06:40:07;;;;;;;14.48;2.22;;;13.40;76.80;;;;;;5071308;28;20617;-62
2021/05/21 06:42:32;;;;;;;10.68;1.20;;;13.40;77.00;;;;;;5071845;28;20039;-62
2021/05/21 06:44:58;;;;;;;7.45;1.98;;;13.40;77.00;;;;;;5072056;28;20041;-62
2021/05/21 06:47:24;;;;;;;7.85;2.30;;;13.50;77.00;;;;;;5072631;28;20024;-62
2021/05/21 06:49:50;;;;;;;4.57;1.33;;;13.50;77.00;;;;;;5075448;28;20115;-62
2021/05/21 06:52:16;;;;;;;3.70;2.15;;;13.50;77.00;;;;;;5075418;28;20025;-62
2021/05/21 06:54:43;;;;;;;7.05;1.58;;;13.50;77.10;;;;;;5075094;28;20028;-62
2021/05/21 06:57:09;;;;;;;16.40;3.15;;;13.60;77.30;;;;;;5075487;28;20029;-62
2021/05/21 06:59:35;;;;;;;13.25;3.05;;;13.60;77.50;;;;;;5075309;28;20032;-62
2021/05/21 07:02:01;;;;;;;12.10;2.08;;;13.60;77.60;;;;;;5074601;28;20029;-62
2021/05/21 07:04:27;;;;;;;8.30;2.58;;;13.60;77.70;;;;;;5074878;28;20040;-62
2021/05/21 07:06:53;;;;;;;4.30;1.35;;;13.50;77.30;;;;;;5075560;28;20506;-62
2021/05/21 07:09:18;;;;;;;12.77;3.05;;;13.40;77.50;;;;;;5074566;28;20625;-62
2021/05/21 07:11:44;;;;;;;8.35;1.77;;;13.40;77.80;;;;;;5061140;28;20490;-63
2021/05/21 07:14:10;;;;;;;7.45;1.85;;;13.40;77.80;;;;;;5075369;28;20033;-62
2021/05/21 07:16:36;;;;;;;14.07;2.33;;;13.40;78.00;;;;;;5074093;28;20081;-62
2021/05/21 07:19:03;;;;;;;14.57;2.22;;;13.40;78.00;;;;;;5075062;28;20558;-62
2021/05/21 07:21:29;;;;;;;14.43;2.45;;;13.40;77.90;;;;;;5075004;28;20410;-62
2021/05/21 07:23:54;;;;;;;12.98;1.75;;;13.40;77.90;;;;;;5072613;28;20051;-62
2021/05/21 07:26:21;;;;;;;13.25;2.55;;;13.50;77.80;;;;;;5075006;28;20028;-62
2021/05/21 07:28:47;;;;;;;10.88;2.33;;;13.50;77.70;;;;;;5073998;28;20506;-62
2021/05/21 07:31:13;;;;;;;4.35;1.75;;;13.50;77.60;;;;;;5074961;28;20107;-62
2021/05/21 07:33:42;;;;;;;9.65;2.03;;;13.50;77.70;;;;;;5074698;28;20046;-62
2021/05/21 07:36:08;;;;;;;6.53;2.13;;;13.50;77.90;;;;;;5074112;28;20586;-62
2021/05/21 07:38:36;;;;;;;10.35;2.10;;;13.50;77.80;;;;;;5074779;28;20046;-62
2021/05/21 07:41:02;;;;;;;11.40;2.78;;;13.50;77.90;;;;;;5074568;28;20479;-62
2021/05/21 07:43:28;;;;;;;2.90;1.17;;;13.50;77.80;;;;;;5074044;28;20036;-62
2021/05/21 07:45:54;;;;;;;9.75;2.22;;;13.50;77.80;;;;;;5074380;28;20077;-62
2021/05/21 07:48:20;;;;;;;15.50;2.33;;;13.50;77.90;;;;;;5074559;28;20115;-62
2021/05/21 07:50:47;;;;;;;12.88;2.08;;;13.60;77.70;;;;;;5073741;28;20033;-62
2021/05/21 07:53:13;;;;;;;10.63;2.20;;;13.60;77.30;;;;;;5074576;28;20040;-62
2021/05/21 07:55:39;;;;;;;14.85;2.65;;;13.50;76.90;;;;;;5074303;28;20044;-62
2021/05/21 07:58:06;;;;;;;10.13;2.70;;;13.50;77.20;;;;;;5073113;28;20060;-62
2021/05/21 08:00:34;;;;;;;6.25;1.50;;;13.50;77.30;;;;;;5073979;28;20029;-62
2021/05/21 08:03:00;;;;;;;9.25;2.85;;;13.60;77.20;;;;;;5074013;28;20025;-63
2021/05/21 08:05:25;;;;;;;5.60;1.58;;;13.70;77.30;;;;;;5073486;28;20056;-62
2021/05/21 08:07:51;;;;;;;12.32;1.65;;;13.60;77.10;;;;;;5074116;28;20033;-62
2021/05/21 08:10:17;;;;;;;13.43;2.30;;;13.60;77.10;;;;;;5074151;28;20024;-62
2021/05/21 08:12:42;;;;;;;8.93;2.42;;;13.70;77.00;;;;;;5073568;28;20115;-62
2021/05/21 08:15:08;;;;;;;15.10;3.00;;;13.70;76.80;;;;;;5073873;28;20059;-62
2021/05/21 08:17:35;;;;;;;10.90;2.08;;;13.70;76.30;;;;;;5073958;28;20028;-62
2021/05/21 08:20:02;;;;;;;12.55;2.92;;;13.70;76.20;;;;;;5073065;28;20031;-63
2021/05/21 08:22:29;;;;;;;5.72;2.30;;;13.60;76.40;;;;;;5073937;28;20033;-62
2021/05/21 08:24:54;;;;;;;12.35;2.20;;;13.60;76.50;;;;;;5073623;28;20484;-66
2021/05/21 08:27:20;;;;;;;9.68;2.33;;;13.70;76.70;;;;;;5073172;28;20027;-66
2021/05/21 08:29:46;;;;;;;3.70;1.50;;;13.80;76.50;;;;;;5073809;28;20052;-65
2021/05/21 08:32:11;;;;;;;13.93;3.05;;;13.80;76.20;;;;;;5072775;28;20526;-65
2021/05/21 08:34:37;;;;;;;9.18;2.25;;;13.80;76.10;;;;;;5062677;28;20128;-65
2021/05/21 08:37:03;;;;;;;11.95;2.85;;;13.80;76.10;;;;;;5066783;28;20051;-65
2021/05/21 08:39:29;;;;;;;7.43;1.95;;;13.80;76.00;;;;;;5070344;28;20060;-65
2021/05/21 08:41:58;;;;;;;10.65;1.90;;;13.80;76.20;;;;;;5068678;28;20024;-64
2021/05/21 08:44:26;;;;;;;10.15;2.70;;;13.80;76.00;;;;;;5059909;28;20013;-64
2021/05/21 08:46:52;;;;;;;9.15;2.22;;;13.90;76.20;;;;;;5068607;28;20071;-65
2021/05/21 08:49:19;;;;;;;10.75;2.50;;;13.90;76.20;;;;;;5069701;28;20055;-64
2021/05/21 08:51:45;;;;;;;13.23;2.67;;;14.00;76.40;;;;;;5069445;28;20028;-64
2021/05/21 08:54:11;;;;;;;14.27;2.72;;;14.00;76.20;;;;;;5067428;28;20107;-65
2021/05/21 08:56:38;;;;;;;12.63;2.40;;;14.00;75.80;;;;;;5070666;28;20127;-65
2021/05/21 08:59:04;;;;;;;11.60;2.65;;;14.10;76.10;;;;;;5067735;28;20055;-65
2021/05/21 09:01:29;;;;;;;7.63;1.40;;;14.10;76.00;;;;;;5070153;28;20464;-65
2021/05/21 09:04:02;;;;;;;5.75;1.15;;;14.20;76.00;;;;;;5068950;28;20487;-65
2021/05/21 09:06:29;;;;;;;10.47;2.50;;;14.20;75.50;;;;;;5059023;28;20079;-64
2021/05/21 09:08:57;;;;;;;14.95;2.85;;;14.20;75.70;;;;;;5069341;28;20757;-65
2021/05/21 09:11:39;;;;;;;10.73;2.70;;;14.20;75.20;;;;;;5071446;28;20480;-65
2021/05/21 09:14:20;;;;;;;10.25;2.65;;;14.30;75.30;;;;;;5073083;28;20028;-65
2021/05/21 09:16:47;;;;;;;9.77;2.75;;;14.20;74.80;;;;;;5070910;28;20070;-65
2021/05/21 09:19:18;;;;;;;14.13;3.40;;;14.30;74.60;;;;;;5060494;28;20059;-64
2021/05/21 09:21:50;;;;;;;8.07;2.22;;;14.20;74.20;;;;;;5071081;28;20032;-68
2021/05/21 09:24:21;;;;;;;14.43;2.25;;;14.30;74.30;;;;;;5066199;28;20044;-64
2021/05/21 09:26:48;;;;;;;12.60;2.85;;;14.30;74.00;;;;;;5066146;28;20527;-64
2021/05/21 09:29:18;;;;;;;15.68;3.30;;;14.30;73.40;;;;;;5059510;28;20058;-64
2021/05/21 09:31:46;;;;;;;6.53;2.53;;;14.30;73.10;;;;;;5062053;28;20103;-64
2021/05/21 09:34:13;;;;;;;17.10;3.53;;;14.30;73.10;;;;;;5067291;28;20040;-64
2021/05/21 09:36:41;;;;;;;10.18;2.03;;;14.30;72.90;;;;;;5062662;28;20028;-64
2021/05/21 09:39:12;;;;;;;9.10;2.22;;;14.20;73.10;;;;;;5066158;28;20029;-64
2021/05/21 09:41:48;;;;;;;10.30;2.35;;;14.30;73.50;;;;;;5064502;28;20029;-64
2021/05/21 09:44:14;;;;;;;7.70;2.30;;;14.40;73.50;;;;;;5065602;28;20040;-64
2021/05/21 09:46:41;;;;;;;7.72;2.35;;;14.50;73.80;;;;;;5064880;28;20021;-64
2021/05/21 09:49:28;;;;;;;11.70;2.72;;;14.60;74.30;;;;;;5064473;28;20108;-67
2021/05/21 09:51:58;;;;;;;12.18;2.35;;;14.60;73.40;;;;;;5063895;28;20075;-68
2021/05/21 09:54:25;;;;;;;8.38;2.50;;;14.60;73.20;;;;;;5056961;28;20056;-67
2021/05/21 09:57:05;;;;;;;9.98;2.33;;;14.70;73.00;;;;;;5071441;28;20029;-67
2021/05/21 09:59:46;;;;;;;8.32;2.22;;;14.60;73.00;;;;;;5071901;28;20573;-68
2021/05/21 10:02:24;;;;;;;7.65;2.05;;;14.70;73.40;;;;;;5060108;28;20535;-65
2021/05/21 10:04:51;;;;;;;10.80;2.90;;;14.70;73.20;;;;;;5052271;28;20381;-65
2021/05/21 10:07:16;;;;;;;6.97;2.20;;;14.80;73.60;;;;;;5069415;28;20055;-65
2021/05/21 10:09:42;;;;;;;5.97;2.08;;;14.80;73.40;;;;;;5071565;28;20029;-63
2021/05/21 10:12:11;;;;;;;18.65;3.25;;;14.80;73.40;;;;;;5067324;28;20032;-63
2021/05/21 10:14:37;;;;;;;13.73;3.28;;;14.80;73.20;;;;;;5071874;28;20387;-63
2021/05/21 10:17:04;;;;;;;9.07;1.95;;;14.90;72.80;;;;;;5071871;28;20120;-63
2021/05/21 10:19:32;;;;;;;8.77;2.03;;;14.90;73.20;;;;;;5071041;28;20054;-63
2021/05/21 10:21:58;;;;;;;9.93;2.13;;;14.90;73.40;;;;;;5072293;28;20028;-64
2021/05/21 10:24:31;;;;;;;4.38;1.48;;;15.00;73.40;;;;;;5074586;28;20052;-64
2021/05/21 10:27:00;;;;;;;14.60;3.13;;;15.00;73.10;;;;;;5069617;28;20488;-64
2021/05/21 10:29:31;;;;;;;6.35;2.20;;;15.10;72.50;;;;;;5058366;28;20362;-64
2021/05/21 10:32:17;;;;;;;11.23;2.80;;;15.10;71.90;;;;;;5067174;28;20045;-66
2021/05/21 10:34:49;;;;;;;11.95;3.03;;;15.10;72.30;;;;;;5071307;28;20035;-66
2021/05/21 10:37:36;;;;;;;14.75;3.00;;;15.00;72.30;;;;;;5065539;28;20075;-66
2021/05/21 10:40:24;;;;;;;9.57;2.30;;;15.00;73.20;;;;;;5061312;28;20051;-66
2021/05/21 10:43:15;;;;;;;8.50;2.30;;;15.00;74.10;;;;;;5061357;28;20190;-65
2021/05/21 10:45:59;;;;;;;14.18;2.28;;;15.10;75.00;;;;;;5064681;28;20361;-65
2021/05/21 10:48:28;;;;;;;6.57;1.98;;;15.10;74.70;;;;;;5060648;28;20044;-66
2021/05/21 10:51:12;;;;;;;6.28;1.83;;;15.10;74.30;;;;;;5064496;28;20030;-65
2021/05/21 10:53:42;;;;;;;9.77;2.22;;;15.20;73.90;;;;;;5067134;28;20059;-66
2021/05/21 10:56:08;;;;;;;12.82;2.67;;;15.20;74.00;;;;;;5060446;28;20372;-65
2021/05/21 10:58:44;;;;;;;8.88;1.75;;;15.30;73.50;;;;;;5066249;28;20380;-66
2021/05/21 11:01:17;;;;;;;7.82;1.63;;;15.30;73.10;;;;;;5074236;28;20029;-66
2021/05/21 11:03:55;;;;;;;7.38;2.00;;;15.30;72.80;;;;;;5074937;28;20036;-63
2021/05/21 11:06:22;;;;;;;6.07;2.08;;;15.40;72.90;;;;;;5074541;28;20492;-63
2021/05/21 11:08:48;;;;;;;12.23;2.85;;;15.40;73.00;;;;;;5074232;28;20028;-63
2021/05/21 11:11:15;;;;;;;10.48;2.65;;;15.40;72.70;;;;;;5074729;28;20636;-63
2021/05/21 11:13:42;;;;;;;10.05;2.33;;;15.40;72.20;;;;;;5074681;28;20035;-63
2021/05/21 11:16:12;;;;;;;6.47;2.42;;;15.40;72.50;;;;;;5073812;28;20094;-66
2021/05/21 11:18:47;;;;;;;5.70;2.03;;;15.40;72.50;;;;;;5074461;28;20032;-62
2021/05/21 11:21:18;;;;;;;8.43;3.20;;;15.40;72.50;;;;;;5070732;28;20036;-62
2021/05/21 11:23:46;;;;;;;8.35;2.42;;;15.50;72.20;;;;;;5066082;28;20048;-62
2021/05/21 11:26:18;;;;;;;9.30;2.45;;;15.40;71.60;;;;;;5066552;28;20028;-62
2021/05/21 11:28:46;;;;;;;5.68;1.88;;;15.40;71.20;;;;;;5064779;28;20090;-62
2021/05/21 11:31:17;;;;;;;8.90;2.35;;;15.30;71.20;;;;;;5069011;28;20044;-62
2021/05/21 11:33:45;;;;;;;12.95;2.90;;;15.30;70.70;;;;;;5066145;28;20095;-62
2021/05/21 11:36:11;;;;;;;10.38;2.45;;;15.30;71.00;;;;;;5069392;28;20108;-62
2021/05/21 11:38:37;;;;;;;7.22;2.08;;;15.30;71.20;;;;;;5069801;28;20024;-62
2021/05/21 11:41:04;;;;;;;5.95;1.92;;;15.30;71.40;;;;;;5068532;28;20040;-63
2021/05/21 11:43:30;;;;;;;8.90;2.80;;;15.40;71.60;;;;;;5063907;28;20033;-62
2021/05/21 11:45:57;;;;;;;10.45;1.90;;;15.50;71.90;;;;;;5068335;28;20037;-62
2021/05/21 11:48:35;;;;;;;10.82;2.47;;;15.50;71.50;;;;;;5067401;28;20380;-64
2021/05/21 11:51:09;;;;;;;8.43;2.00;;;15.60;70.40;;;;;;5067744;28;20032;-63
2021/05/21 11:54:04;;;;;;;6.65;1.23;;;15.60;70.10;;;;;;5066589;28;20076;-63
2021/05/21 11:56:38;;;;;;;7.63;2.05;;;15.50;70.10;;;;;;5062569;28;20037;-64
2021/05/21 11:59:05;;;;;;;9.90;1.75;;;15.60;70.10;;;;;;5074156;28;20488;-63
2021/05/21 12:01:33;;;;;;;10.55;2.10;;;15.60;71.10;;;;;;5066924;28;20034;-63
2021/05/21 12:04:03;;;;;;;6.45;1.88;;;15.50;72.40;;;;;;5071624;28;20068;-63
2021/05/21 12:06:30;;;;;;;6.80;1.38;;;15.40;72.00;;;;;;5072938;28;20037;-63
2021/05/21 12:08:56;;;;;;;1.60;0.90;;;15.40;72.50;;;;;;5069159;28;20430;-63
2021/05/21 12:11:24;;;;;;;9.25;1.38;;;15.30;73.10;;;;;;5072452;28;20037;-63
2021/05/21 12:13:50;;;;;;;4.95;1.65;;;15.30;73.50;;;;;;5073058;28;20522;-63
2021/05/21 12:16:24;;;;;;;8.27;1.98;;;15.30;73.60;;;;;;5070188;28;20025;-63
2021/05/21 12:18:50;;;;;;;13.43;2.15;;;15.40;73.60;;;;;;5062330;28;20032;-63
2021/05/21 12:21:24;;;;;;;5.57;1.80;;;15.30;73.60;;;;;;5073296;28;20070;-63
2021/05/21 12:23:52;;;;;;;6.07;1.67;;;15.40;73.90;;;;;;5073348;28;20043;-64
2021/05/21 12:26:21;;;;;;;2.33;1.25;;;15.40;73.50;;;;;;5056450;28;20523;-63
2021/05/21 12:28:48;;;;;;;6.35;1.23;;;15.40;73.50;;;;;;5053278;28;20094;-65
2021/05/21 12:31:14;;;;;;;5.35;0.93;;;15.40;73.50;;;;;;5058000;28;20763;-65
2021/05/21 12:33:41;;;;;;;2.70;1.40;;;15.40;73.50;;;;;;5056110;28;20504;-65
2021/05/21 12:36:12;;;;;;;1.60;0.68;;;15.50;73.50;;;;;;5058466;28;20035;-65
2021/05/21 12:38:39;;;;;;;7.60;2.42;;;15.50;73.40;;;;;;5055909;28;20033;-65
2021/05/21 12:41:05;;;;;;;9.68;2.55;;;15.50;73.30;;;;;;5056586;28;20143;-65
2021/05/21 12:43:32;;;;;;;5.70;1.17;;;15.50;73.20;;;;;;5057036;28;20560;-65
2021/05/21 12:46:07;;;;;;;6.95;2.25;;;15.50;73.30;;;;;;5061084;28;20040;-64